createdAt,value
2023-08-17T00:02:16.057Z,19.06
2023-08-17T00:04:42.990Z,19.06
2023-08-17T00:07:09.871Z,19.03
2023-08-17T00:09:36.764Z,18.89
2023-08-17T00:12:03.982Z,18.87
2023-08-17T00:14:32.192Z,18.81
2023-08-17T00:16:59.002Z,18.83
2023-08-17T00:19:25.810Z,18.77
2023-08-17T00:21:53.398Z,18.83
2023-08-17T00:24:20.365Z,18.72
2023-08-17T00:26:47.345Z,18.71
2023-08-17T00:29:16.334Z,18.77
2023-08-17T00:31:43.425Z,18.80
2023-08-17T00:34:10.390Z,18.79
2023-08-17T00:36:37.416Z,18.81
2023-08-17T00:39:04.517Z,18.79
2023-08-17T00:41:32.056Z,18.78
2023-08-17T00:43:58.950Z,18.83
2023-08-17T00:46:26.402Z,18.84
2023-08-17T00:48:54.244Z,18.81
2023-08-17T00:51:22.015Z,18.77
2023-08-17T00:53:49.236Z,18.80
2023-08-17T00:56:16.201Z,18.83
2023-08-17T00:58:44.137Z,18.84
2023-08-17T01:01:11.549Z,18.75
2023-08-17T01:03:42.123Z,18.76
2023-08-17T01:06:09.716Z,18.84
2023-08-17T01:08:38.470Z,18.88
2023-08-17T01:11:26.189Z,18.98
2023-08-17T01:14:00.185Z,18.97
2023-08-17T01:16:40.403Z,18.89
2023-08-17T01:19:10.308Z,18.88
2023-08-17T01:21:44.418Z,18.75
2023-08-17T01:24:13.076Z,18.78
2023-08-17T01:26:39.940Z,18.83
2023-08-17T01:29:07.114Z,18.81
2023-08-17T01:31:42.168Z,18.88
2023-08-17T01:34:14.750Z,18.88
2023-08-17T01:36:48.317Z,18.82
2023-08-17T01:39:17.171Z,18.81
2023-08-17T01:41:46.798Z,18.86
2023-08-17T01:44:13.953Z,18.88
2023-08-17T01:46:41.022Z,18.83
2023-08-17T01:49:07.941Z,18.79
2023-08-17T01:51:34.830Z,18.77
2023-08-17T01:54:01.634Z,18.69
2023-08-17T01:56:28.539Z,18.63
2023-08-17T01:58:55.394Z,18.56
2023-08-17T02:01:22.244Z,18.54
2023-08-17T02:03:49.084Z,18.48
2023-08-17T02:06:15.904Z,18.49
2023-08-17T02:08:42.967Z,18.49
2023-08-17T02:11:11.441Z,18.48
2023-08-17T02:13:38.808Z,18.50
2023-08-17T02:16:06.479Z,18.45
2023-08-17T02:18:34.983Z,18.40
2023-08-17T02:21:02.242Z,18.30
2023-08-17T02:23:29.106Z,18.35
2023-08-17T02:25:56.041Z,18.35
2023-08-17T02:28:22.942Z,18.22
2023-08-17T02:30:50.466Z,18.25
2023-08-17T02:33:17.308Z,18.20
2023-08-17T02:35:44.366Z,18.17
2023-08-17T02:38:11.226Z,18.15
2023-08-17T02:40:38.075Z,18.19
2023-08-17T02:43:05.028Z,18.18
2023-08-17T02:45:31.980Z,18.23
2023-08-17T02:47:58.767Z,18.16
2023-08-17T02:50:25.613Z,18.19
2023-08-17T02:52:52.511Z,18.18
2023-08-17T02:55:19.343Z,18.16
2023-08-17T02:57:46.223Z,18.14
2023-08-17T03:00:13.793Z,18.11
2023-08-17T03:02:40.747Z,18.06
2023-08-17T03:05:07.892Z,18.08
2023-08-17T03:07:34.768Z,18.08
2023-08-17T03:10:01.586Z,18.07
2023-08-17T03:12:28.368Z,18.03
2023-08-17T03:14:55.189Z,18.03
2023-08-17T03:17:21.981Z,17.99
2023-08-17T03:19:48.809Z,18.07
2023-08-17T03:22:15.828Z,18.00
2023-08-17T03:24:42.673Z,17.98
2023-08-17T03:27:10.112Z,17.93
2023-08-17T03:29:36.946Z,17.95
2023-08-17T03:32:03.987Z,17.96
2023-08-17T03:34:30.993Z,17.91
2023-08-17T03:36:57.856Z,18.01
2023-08-17T03:39:24.744Z,18.01
2023-08-17T03:41:51.570Z,18.01
2023-08-17T03:44:18.547Z,17.98
2023-08-17T03:46:45.478Z,17.90
2023-08-17T03:49:12.841Z,17.85
2023-08-17T03:51:39.683Z,17.82
2023-08-17T03:54:06.564Z,17.93
2023-08-17T03:56:33.388Z,17.84
2023-08-17T03:59:00.819Z,17.84
2023-08-17T04:01:27.658Z,17.88
2023-08-17T04:03:54.582Z,17.87
2023-08-17T04:06:21.456Z,17.89
2023-08-17T04:08:48.290Z,17.89
2023-08-17T04:11:15.143Z,17.84
2023-08-17T04:13:41.913Z,17.89
2023-08-17T04:16:08.865Z,17.89
2023-08-17T04:18:35.729Z,17.89
2023-08-17T04:21:02.531Z,17.87
2023-08-17T04:23:29.335Z,17.84
2023-08-17T04:25:56.699Z,17.79
2023-08-17T04:28:23.603Z,17.84
2023-08-17T04:30:50.494Z,17.85
2023-08-17T04:33:17.356Z,17.85
2023-08-17T04:35:48.197Z,17.89
2023-08-17T04:38:15.497Z,17.96
2023-08-17T04:40:43.002Z,17.94
2023-08-17T04:43:12.071Z,17.92
2023-08-17T04:45:39.388Z,17.99
2023-08-17T04:48:07.786Z,18.04
2023-08-17T04:50:34.718Z,18.03
2023-08-17T04:53:01.683Z,18.07
2023-08-17T04:55:28.641Z,18.05
2023-08-17T04:57:55.479Z,18.16
2023-08-17T05:00:29.201Z,18.20
2023-08-17T05:02:59.486Z,18.15
2023-08-17T05:05:26.955Z,18.18
2023-08-17T05:07:54.238Z,18.20
2023-08-17T05:10:21.090Z,18.14
2023-08-17T05:12:48.312Z,18.28
2023-08-17T05:15:15.221Z,18.43
2023-08-17T05:17:42.148Z,18.42
2023-08-17T05:20:09.820Z,18.46
2023-08-17T05:22:36.648Z,18.43
2023-08-17T05:25:04.206Z,18.45
2023-08-17T05:27:31.156Z,18.50
2023-08-17T05:29:57.968Z,18.57
2023-08-17T05:32:24.871Z,18.47
2023-08-17T05:34:51.646Z,18.50
2023-08-17T05:37:19.285Z,18.48
2023-08-17T05:39:46.074Z,18.52
2023-08-17T05:42:13.007Z,18.56
2023-08-17T05:44:39.833Z,18.64
2023-08-17T05:47:06.710Z,18.71
2023-08-17T05:49:33.568Z,18.74
2023-08-17T05:52:00.450Z,18.85
2023-08-17T05:54:27.289Z,18.86
2023-08-17T05:56:54.086Z,18.85
2023-08-17T05:59:21.123Z,18.87
2023-08-17T06:01:47.974Z,18.96
2023-08-17T06:04:14.954Z,18.89
2023-08-17T06:06:41.884Z,19.05
2023-08-17T06:09:10.279Z,19.11
2023-08-17T06:11:37.349Z,19.11
2023-08-17T06:14:04.324Z,19.04
2023-08-17T06:16:31.449Z,19.07
2023-08-17T06:18:58.283Z,19.23
2023-08-17T06:21:25.193Z,19.38
2023-08-17T06:23:52.163Z,19.49
2023-08-17T06:26:19.876Z,19.60
2023-08-17T06:28:46.652Z,19.77
2023-08-17T06:31:16.528Z,19.70
2023-08-17T06:33:43.420Z,19.74
2023-08-17T06:36:10.256Z,19.77
2023-08-17T06:38:37.212Z,20.05
2023-08-17T06:41:04.059Z,19.97
2023-08-17T06:43:30.931Z,20.07
2023-08-17T06:45:57.856Z,19.92
2023-08-17T06:48:24.670Z,20.15
2023-08-17T06:50:51.507Z,20.38
2023-08-17T06:53:18.361Z,20.59
2023-08-17T06:55:45.396Z,20.74
2023-08-17T06:58:12.498Z,20.92
2023-08-17T07:00:42.089Z,20.74
2023-08-17T07:03:09.479Z,20.82
2023-08-17T07:05:36.613Z,20.98
2023-08-17T07:08:03.625Z,21.19
2023-08-17T07:10:30.469Z,21.27
2023-08-17T07:12:57.394Z,21.16
2023-08-17T07:15:24.248Z,21.59
2023-08-17T07:17:51.143Z,21.49
2023-08-17T07:20:18.167Z,21.40
2023-08-17T07:22:45.258Z,21.51
2023-08-17T07:25:12.171Z,21.89
2023-08-17T07:27:38.987Z,22.16
2023-08-17T07:30:06.495Z,22.15
2023-08-17T07:32:34.702Z,22.12
2023-08-17T07:35:01.690Z,22.24
2023-08-17T07:37:34.496Z,22.41
2023-08-17T07:40:01.931Z,22.04
2023-08-17T07:42:28.969Z,22.30
2023-08-17T07:44:55.986Z,22.66
2023-08-17T07:47:22.848Z,22.64
2023-08-17T07:49:50.049Z,22.46
2023-08-17T07:52:17.508Z,22.96
2023-08-17T07:54:44.449Z,23.28
2023-08-17T07:57:12.034Z,23.39
2023-08-17T07:59:38.862Z,23.44
2023-08-17T08:02:05.753Z,23.59
2023-08-17T08:04:32.751Z,24.12
2023-08-17T08:06:59.632Z,23.67
2023-08-17T08:09:26.430Z,24.23
2023-08-17T08:11:53.441Z,23.32
2023-08-17T08:14:20.316Z,23.87
2023-08-17T08:16:48.494Z,24.45
2023-08-17T08:19:15.273Z,24.74
2023-08-17T08:21:42.128Z,25.25
2023-08-17T08:24:17.740Z,25.00
2023-08-17T08:26:45.260Z,25.32
2023-08-17T08:29:12.324Z,25.62
2023-08-17T08:31:39.386Z,25.94
2023-08-17T08:34:06.281Z,25.30
2023-08-17T08:36:33.231Z,25.78
2023-08-17T08:39:00.124Z,25.28
2023-08-17T08:41:28.833Z,25.41
2023-08-17T08:43:55.928Z,25.96
2023-08-17T08:46:28.110Z,26.48
2023-08-17T08:48:55.918Z,27.24
2023-08-17T08:51:28.897Z,27.08
2023-08-17T08:54:06.418Z,26.94
2023-08-17T08:56:34.937Z,26.34
2023-08-17T08:59:05.872Z,27.60
2023-08-17T09:01:34.087Z,27.19
2023-08-17T09:04:04.433Z,26.62
2023-08-17T09:06:32.385Z,28.04
2023-08-17T09:09:00.018Z,28.36
2023-08-17T09:11:26.979Z,28.73
2023-08-17T09:13:54.903Z,27.88
2023-08-17T09:16:24.442Z,28.62
2023-08-17T09:18:55.447Z,28.18
2023-08-17T09:21:26.127Z,28.22
2023-08-17T09:23:59.215Z,28.64
2023-08-17T09:26:26.687Z,27.97
2023-08-17T09:28:55.691Z,29.09
2023-08-17T09:31:23.051Z,29.65
2023-08-17T09:33:51.634Z,28.81
2023-08-17T09:36:26.247Z,27.62
2023-08-17T09:38:53.109Z,28.00
2023-08-17T09:41:20.624Z,29.28
2023-08-17T09:43:49.007Z,27.47
2023-08-17T09:46:16.498Z,28.41
2023-08-17T09:48:49.190Z,28.05
2023-08-17T09:51:17.475Z,28.45
2023-08-17T09:53:44.677Z,27.82
2023-08-17T09:56:18.202Z,28.20
2023-08-17T09:58:45.288Z,27.66
2023-08-17T10:01:13.645Z,27.94
2023-08-17T10:03:46.565Z,28.61
2023-08-17T10:06:17.032Z,28.68
2023-08-17T10:08:46.689Z,28.54
2023-08-17T10:11:16.317Z,28.88
2023-08-17T10:14:04.306Z,30.56
2023-08-17T10:16:45.041Z,29.54
2023-08-17T10:19:20.603Z,29.14
2023-08-17T10:21:57.963Z,29.24
2023-08-17T10:24:24.909Z,28.59
2023-08-17T10:26:54.916Z,29.85
2023-08-17T10:29:24.855Z,30.28
2023-08-17T10:31:52.475Z,29.49
2023-08-17T10:34:19.899Z,30.40
2023-08-17T10:36:47.269Z,30.09
2023-08-17T10:39:28.750Z,30.67
2023-08-17T10:41:57.921Z,29.75
2023-08-17T10:44:47.592Z,29.75
2023-08-17T10:47:21.809Z,28.94
2023-08-17T10:49:59.466Z,29.61
2023-08-17T10:52:34.231Z,29.85
2023-08-17T10:55:02.782Z,30.38
2023-08-17T10:57:30.727Z,30.24
2023-08-17T11:00:07.625Z,30.11
2023-08-17T11:02:36.178Z,30.21
2023-08-17T11:05:04.825Z,30.83
2023-08-17T11:07:46.097Z,29.86
2023-08-17T11:10:19.473Z,30.50
2023-08-17T11:12:46.425Z,30.74
2023-08-17T11:15:13.660Z,31.61
2023-08-17T11:17:40.594Z,30.29
2023-08-17T11:20:15.112Z,30.13
2023-08-17T11:22:42.347Z,31.55
2023-08-17T11:25:09.729Z,31.62
2023-08-17T11:27:38.781Z,32.16
2023-08-17T11:30:07.028Z,31.36
2023-08-17T11:32:33.918Z,31.96
2023-08-17T11:35:00.772Z,32.20
2023-08-17T11:37:27.691Z,32.05
2023-08-17T11:39:54.626Z,31.42
2023-08-17T11:42:21.663Z,33.93
2023-08-17T11:44:50.041Z,32.67
2023-08-17T11:47:17.263Z,32.88
2023-08-17T11:49:44.270Z,32.30
2023-08-17T11:52:12.401Z,32.55
2023-08-17T11:54:43.140Z,32.41
2023-08-17T11:57:10.077Z,32.03
2023-08-17T11:59:37.447Z,33.12
2023-08-17T12:02:04.411Z,32.60
2023-08-17T12:04:35.152Z,32.13
2023-08-17T12:07:02.305Z,32.81
2023-08-17T12:09:29.290Z,32.44
2023-08-17T12:12:01.340Z,33.21
2023-08-17T12:14:31.622Z,32.41
2023-08-17T12:16:58.566Z,33.08
2023-08-17T12:19:28.347Z,32.19
2023-08-17T12:21:55.283Z,34.07
2023-08-17T12:24:25.316Z,32.95
2023-08-17T12:26:53.146Z,33.04
2023-08-17T12:29:21.507Z,33.12
2023-08-17T12:31:48.527Z,34.01
2023-08-17T12:34:15.864Z,35.05
2023-08-17T12:36:45.593Z,34.57
2023-08-17T12:39:12.674Z,37.18
2023-08-17T12:41:39.511Z,35.72
2023-08-17T12:44:06.597Z,35.26
2023-08-17T12:46:36.017Z,34.24
2023-08-17T12:49:03.007Z,35.88
2023-08-17T12:51:30.078Z,34.65
2023-08-17T12:53:57.485Z,35.34
2023-08-17T12:56:24.506Z,35.87
2023-08-17T12:58:51.463Z,34.29
2023-08-17T13:01:20.225Z,34.14
2023-08-17T13:03:47.105Z,34.16
2023-08-17T13:06:14.362Z,33.57
2023-08-17T13:08:41.197Z,35.45
2023-08-17T13:11:08.183Z,37.07
2023-08-17T13:13:35.033Z,36.93
2023-08-17T13:16:03.038Z,36.31
2023-08-17T13:18:31.473Z,36.28
2023-08-17T13:20:58.471Z,36.47
2023-08-17T13:23:25.381Z,34.14
2023-08-17T13:25:52.802Z,34.36
2023-08-17T13:28:19.612Z,34.81
2023-08-17T13:30:46.725Z,35.23
2023-08-17T13:33:14.125Z,37.37
2023-08-17T13:35:41.420Z,35.88
2023-08-17T13:38:08.317Z,36.74
2023-08-17T13:40:37.661Z,35.59
2023-08-17T13:43:04.937Z,35.73
2023-08-17T13:45:31.791Z,37.36
2023-08-17T13:48:03.385Z,35.76
2023-08-17T13:50:30.402Z,37.80
2023-08-17T13:52:57.295Z,38.62
2023-08-17T13:55:24.852Z,38.18
2023-08-17T13:57:54.192Z,34.54
2023-08-17T14:00:20.989Z,35.43
2023-08-17T14:02:48.041Z,36.26
2023-08-17T14:05:15.343Z,35.85
2023-08-17T14:07:42.283Z,35.58
2023-08-17T14:10:13.993Z,36.86
2023-08-17T14:12:48.690Z,35.61
2023-08-17T14:15:15.618Z,35.09
2023-08-17T14:17:42.519Z,35.84
2023-08-17T14:20:10.328Z,33.34
2023-08-17T14:22:37.430Z,32.89
2023-08-17T14:25:04.589Z,32.93
2023-08-17T14:27:31.463Z,32.69
2023-08-17T14:29:58.720Z,32.87
2023-08-17T14:32:25.853Z,32.19
2023-08-17T14:34:52.827Z,32.17
2023-08-17T14:37:24.928Z,31.41
2023-08-17T14:39:52.332Z,31.48
2023-08-17T14:42:19.676Z,31.09
2023-08-17T14:44:46.947Z,30.94
2023-08-17T14:47:15.045Z,30.70
2023-08-17T14:49:47.649Z,30.75
2023-08-17T14:52:14.602Z,30.19
2023-08-17T14:54:43.409Z,30.57
2023-08-17T14:57:10.642Z,30.13
2023-08-17T14:59:38.368Z,29.82
2023-08-17T15:02:05.512Z,30.41
2023-08-17T15:04:32.695Z,29.91
2023-08-17T15:06:59.583Z,30.17
2023-08-17T15:09:26.429Z,29.95
2023-08-17T15:11:53.435Z,29.88
2023-08-17T15:14:20.268Z,30.17
2023-08-17T15:16:47.287Z,29.84
2023-08-17T15:19:15.597Z,29.41
2023-08-17T15:21:42.727Z,29.29
2023-08-17T15:24:09.626Z,28.76
2023-08-17T15:26:36.502Z,28.93
2023-08-17T15:29:03.492Z,29.05
2023-08-17T15:31:30.432Z,29.25
2023-08-17T15:33:57.410Z,29.14
2023-08-17T15:36:25.339Z,29.04
2023-08-17T15:38:52.451Z,29.36
2023-08-17T15:41:20.165Z,29.20
2023-08-17T15:43:47.034Z,29.09
2023-08-17T15:46:13.934Z,29.00
2023-08-17T15:48:41.105Z,29.01
2023-08-17T15:51:08.029Z,29.09
2023-08-17T15:53:36.001Z,29.08
2023-08-17T15:56:02.907Z,29.30
2023-08-17T15:58:29.862Z,29.08
2023-08-17T16:00:56.709Z,28.99
2023-08-17T16:03:24.035Z,29.06
2023-08-17T16:05:51.071Z,29.06
2023-08-17T16:08:18.048Z,28.56
2023-08-17T16:10:48.130Z,27.00
2023-08-17T16:13:16.386Z,26.40
2023-08-17T16:15:43.334Z,26.34
2023-08-17T16:18:10.227Z,26.14
2023-08-17T16:20:37.116Z,25.95
2023-08-17T16:23:04.674Z,26.06
2023-08-17T16:25:33.838Z,25.84
2023-08-17T16:28:01.035Z,25.66
2023-08-17T16:30:27.829Z,25.63
2023-08-17T16:32:54.860Z,25.63
2023-08-17T16:35:21.977Z,25.40
2023-08-17T16:37:48.889Z,25.38
2023-08-17T16:40:31.964Z,25.62
2023-08-17T16:43:04.125Z,25.36
2023-08-17T16:45:31.922Z,25.18
2023-08-17T16:47:58.899Z,25.41
2023-08-17T16:50:26.129Z,25.34
2023-08-17T16:52:53.184Z,25.33
2023-08-17T16:55:20.127Z,25.24
2023-08-17T16:57:46.962Z,25.17
2023-08-17T17:00:17.331Z,25.21
2023-08-17T17:02:44.697Z,25.05
2023-08-17T17:05:11.679Z,24.84
2023-08-17T17:07:38.494Z,24.99
2023-08-17T17:10:05.716Z,24.88
2023-08-17T17:12:32.489Z,24.89
2023-08-17T17:14:59.455Z,24.81
2023-08-17T17:17:26.716Z,24.75
2023-08-17T17:19:53.982Z,24.94
2023-08-17T17:22:21.293Z,24.81
2023-08-17T17:24:48.113Z,24.78
2023-08-17T17:27:14.992Z,24.85
2023-08-17T17:29:41.890Z,24.64
2023-08-17T17:32:08.848Z,24.82
2023-08-17T17:34:35.854Z,24.49
2023-08-17T17:37:04.797Z,24.60
2023-08-17T17:39:31.601Z,24.47
2023-08-17T17:41:58.706Z,24.57
2023-08-17T17:44:25.977Z,24.58
2023-08-17T17:46:53.843Z,24.54
2023-08-17T17:49:21.719Z,24.56
2023-08-17T17:51:49.265Z,24.47
2023-08-17T17:54:16.480Z,24.54
2023-08-17T17:56:45.282Z,24.54
2023-08-17T17:59:12.655Z,24.77
2023-08-17T18:01:40.208Z,24.40
2023-08-17T18:04:07.545Z,24.81
2023-08-17T18:06:38.339Z,24.45
2023-08-17T18:09:08.445Z,24.38
2023-08-17T18:11:35.611Z,24.26
2023-08-17T18:14:03.159Z,24.35
2023-08-17T18:16:31.716Z,24.29
2023-08-17T18:18:58.912Z,24.31
2023-08-17T18:21:25.757Z,24.20
2023-08-17T18:23:52.602Z,24.17
2023-08-17T18:26:19.402Z,24.10
2023-08-17T18:28:46.362Z,24.17
2023-08-17T18:31:13.492Z,24.15
2023-08-17T18:33:41.380Z,24.10
2023-08-17T18:36:08.230Z,24.05
2023-08-17T18:38:35.062Z,24.13
2023-08-17T18:41:09.375Z,24.10
2023-08-17T18:43:37.526Z,24.15
2023-08-17T18:46:04.817Z,24.07
2023-08-17T18:48:32.124Z,24.04
2023-08-17T18:50:59.367Z,23.89
2023-08-17T18:53:26.295Z,23.83
2023-08-17T18:55:53.239Z,23.82
2023-08-17T18:58:21.679Z,23.82
2023-08-17T19:00:48.770Z,23.82
2023-08-17T19:03:16.003Z,23.80
2023-08-17T19:05:43.509Z,23.73
2023-08-17T19:08:10.314Z,23.46
2023-08-17T19:10:37.258Z,23.54
2023-08-17T19:13:04.411Z,23.47
2023-08-17T19:15:31.588Z,23.37
2023-08-17T19:17:58.690Z,23.05
2023-08-17T19:20:25.604Z,23.07
2023-08-17T19:22:56.761Z,22.81
2023-08-17T19:25:24.350Z,22.99
2023-08-17T19:27:51.244Z,22.81
2023-08-17T19:30:20.759Z,22.77
2023-08-17T19:32:47.686Z,22.80
2023-08-17T19:35:16.121Z,22.82
2023-08-17T19:37:43.270Z,22.81
2023-08-17T19:40:10.813Z,22.77
2023-08-17T19:42:37.716Z,22.87
2023-08-17T19:45:05.475Z,22.91
2023-08-17T19:47:32.660Z,22.85
2023-08-17T19:49:59.656Z,22.68
2023-08-17T19:52:26.484Z,22.82
2023-08-17T19:54:53.419Z,22.76
2023-08-17T19:57:21.316Z,22.78
2023-08-17T19:59:50.512Z,22.73
2023-08-17T20:02:17.441Z,22.83
2023-08-17T20:04:46.028Z,22.75
2023-08-17T20:07:12.932Z,22.58
2023-08-17T20:09:39.874Z,22.56
2023-08-17T20:12:07.420Z,22.57
2023-08-17T20:14:36.155Z,22.41
2023-08-17T20:17:03.275Z,22.31
2023-08-17T20:19:33.650Z,22.23
2023-08-17T20:22:02.111Z,22.26
2023-08-17T20:24:29.043Z,22.20
2023-08-17T20:26:56.320Z,22.11
2023-08-17T20:29:23.674Z,22.11
2023-08-17T20:31:51.360Z,22.14
2023-08-17T20:34:21.059Z,22.12
2023-08-17T20:36:52.171Z,22.05
2023-08-17T20:39:21.788Z,22.07
2023-08-17T20:41:48.919Z,21.92
2023-08-17T20:44:15.870Z,21.99
2023-08-17T20:46:42.724Z,22.04
2023-08-17T20:49:09.618Z,22.01
2023-08-17T20:51:36.594Z,21.98
2023-08-17T20:54:03.988Z,21.95
2023-08-17T20:56:30.938Z,21.95
2023-08-17T20:58:57.800Z,21.83
2023-08-17T21:01:24.860Z,21.89
2023-08-17T21:03:51.991Z,21.87
2023-08-17T21:06:22.166Z,21.87
2023-08-17T21:08:49.258Z,21.98
2023-08-17T21:11:17.035Z,21.87
2023-08-17T21:13:44.128Z,21.78
2023-08-17T21:16:11.324Z,21.63
2023-08-17T21:18:38.531Z,21.52
2023-08-17T21:21:05.791Z,21.46
2023-08-17T21:23:33.778Z,21.52
2023-08-17T21:26:00.850Z,21.49
2023-08-17T21:28:27.954Z,21.45
2023-08-17T21:31:03.210Z,21.36
2023-08-17T21:33:31.205Z,21.27
2023-08-17T21:35:59.927Z,21.25
2023-08-17T21:38:27.362Z,21.16
2023-08-17T21:41:01.702Z,21.21
2023-08-17T21:43:38.244Z,21.18
2023-08-17T21:46:05.093Z,21.17
2023-08-17T21:48:32.047Z,21.15
2023-08-17T21:50:59.036Z,21.03
2023-08-17T21:53:26.013Z,21.00
2023-08-17T21:55:53.318Z,20.89
2023-08-17T21:58:20.872Z,20.92
2023-08-17T22:00:48.593Z,20.87
2023-08-17T22:03:16.747Z,20.82
2023-08-17T22:05:47.813Z,20.74
2023-08-17T22:08:15.750Z,20.79
2023-08-17T22:10:43.290Z,20.80
2023-08-17T22:13:10.516Z,20.72
2023-08-17T22:15:37.563Z,20.68
2023-08-17T22:18:04.980Z,20.74
2023-08-17T22:20:31.988Z,20.70
2023-08-17T22:22:59.033Z,20.63
2023-08-17T22:25:25.918Z,20.56
2023-08-17T22:27:52.888Z,20.62
2023-08-17T22:30:20.363Z,20.65
2023-08-17T22:32:47.604Z,20.67
2023-08-17T22:35:15.232Z,20.62
2023-08-17T22:37:42.169Z,20.53
2023-08-17T22:40:09.442Z,20.58
2023-08-17T22:42:37.068Z,20.55
2023-08-17T22:45:04.451Z,20.51
2023-08-17T22:47:32.487Z,20.53
2023-08-17T22:49:59.877Z,20.45
2023-08-17T22:52:26.902Z,20.50
2023-08-17T22:54:53.957Z,20.51
2023-08-17T22:57:20.975Z,20.47
2023-08-17T22:59:48.027Z,20.50
2023-08-17T23:02:14.908Z,20.39
2023-08-17T23:04:41.749Z,20.46
2023-08-17T23:07:08.593Z,20.34
2023-08-17T23:09:37.039Z,20.37
2023-08-17T23:12:07.523Z,20.22
2023-08-17T23:14:35.691Z,20.21
2023-08-17T23:17:02.689Z,20.34
2023-08-17T23:19:29.515Z,20.26
2023-08-17T23:21:58.996Z,20.22
2023-08-17T23:24:26.080Z,20.28
2023-08-17T23:26:52.925Z,20.21
2023-08-17T23:29:19.816Z,20.21
2023-08-17T23:31:46.882Z,20.22
2023-08-17T23:34:14.063Z,20.29
2023-08-17T23:36:40.969Z,20.36
2023-08-17T23:39:07.896Z,20.27
2023-08-17T23:41:34.981Z,20.30
2023-08-17T23:44:02.278Z,20.26
2023-08-17T23:46:29.368Z,20.16
2023-08-17T23:48:56.471Z,19.98
2023-08-17T23:51:23.496Z,19.82
2023-08-17T23:53:51.104Z,19.87
2023-08-17T23:56:18.134Z,19.88
2023-08-17T23:58:44.964Z,19.86
